Time;durP1;ratioP1;P1;durP2;ratioP2;P2;SDS_P1;SDS_P2;PMS_P1;PMS_P2;Temp;Humidity;BMP_temperature;BMP_pressure;BME280_temperature;BME280_humidity;BME280_pressure;Samples;Min_cycle;Max_cycle;Signal;HPM_P1;HPM_P2
2023/03/24 00:02:06;;;;;;;5.83;4.30;;;;;;;12.05;100.00;99054.69;5025184;28;20222;-61
2023/03/24 00:04:32;;;;;;;4.10;3.80;;;;;;;11.94;100.00;99055.50;5081487;28;20201;-59
2023/03/24 00:07:00;;;;;;;6.33;3.93;;;;;;;11.98;100.00;99050.13;5040553;28;20189;-59
2023/03/24 00:09:27;;;;;;;3.90;3.47;;;;;;;12.01;100.00;99042.19;5047478;28;20295;-59
2023/03/24 00:11:52;;;;;;;5.30;3.63;;;;;;;12.12;100.00;99039.59;5058192;28;20394;-59
2023/03/24 00:14:19;;;;;;;5.03;3.37;;;;;;;12.21;100.00;99032.88;5053086;28;20634;-61
2023/03/24 00:16:45;;;;;;;5.83;3.10;;;;;;;12.11;100.00;99035.38;5068398;28;20311;-60
2023/03/24 00:19:13;;;;;;;3.43;2.90;;;;;;;12.20;100.00;99033.81;5055662;28;20273;-60
2023/03/24 00:21:40;;;;;;;3.50;2.73;;;;;;;12.23;100.00;99029.25;5043073;28;20228;-61
2023/03/24 00:24:06;;;;;;;3.10;2.90;;;;;;;12.33;100.00;99020.78;5056604;28;20235;-61
2023/03/24 00:26:33;;;;;;;4.43;3.10;;;;;;;12.37;100.00;99017.03;5049639;28;20173;-61
2023/03/24 00:28:59;;;;;;;3.73;3.20;;;;;;;12.33;100.00;99021.63;5081833;28;20178;-60
2023/03/24 00:31:24;;;;;;;4.10;3.20;;;;;;;12.36;100.00;99008.47;5023772;28;20365;-60
2023/03/24 00:33:50;;;;;;;3.50;3.20;;;;;;;12.34;100.00;99009.53;5059395;28;20636;-59
2023/03/24 00:36:19;;;;;;;3.50;3.17;;;;;;;12.32;100.00;99001.91;5055527;28;20213;-60
2023/03/24 00:38:46;;;;;;;3.70;3.33;;;;;;;12.23;100.00;98997.47;5054819;28;20189;-59
2023/03/24 00:41:12;;;;;;;3.80;3.20;;;;;;;12.09;100.00;98993.41;5063524;28;20215;-60
2023/03/24 00:43:38;;;;;;;3.80;3.47;;;;;;;11.95;100.00;98989.31;5059864;28;20250;-59
2023/03/24 00:46:07;;;;;;;3.20;2.90;;;;;;;11.86;100.00;98982.31;5087697;28;20187;-60
2023/03/24 00:48:33;;;;;;;3.93;3.27;;;;;;;11.63;100.00;98982.31;5053447;28;20205;-59
2023/03/24 00:51:01;;;;;;;3.00;2.80;;;;;;;11.66;100.00;98978.69;5054770;28;20234;-60
2023/03/24 00:53:30;;;;;;;3.43;3.13;;;;;;;11.62;100.00;98976.34;5070417;28;20527;-60
2023/03/24 00:55:57;;;;;;;3.77;3.30;;;;;;;11.56;100.00;98978.56;5055070;28;20181;-60
2023/03/24 00:58:23;;;;;;;3.23;2.93;;;;;;;11.56;100.00;98983.72;5086657;28;20177;-60
2023/03/24 01:00:52;;;;;;;3.40;3.10;;;;;;;11.54;100.00;98976.13;5052890;28;20223;-60
2023/03/24 01:03:20;;;;;;;5.97;3.30;;;;;;;11.61;100.00;98972.13;5062454;28;20223;-60
2023/03/24 01:05:47;;;;;;;4.37;3.50;;;;;;;11.63;100.00;98966.88;5085335;28;20177;-61
2023/03/24 01:08:20;;;;;;;4.50;3.60;;;;;;;11.63;100.00;98961.72;5044437;28;20580;-60
2023/03/24 01:10:51;;;;;;;5.27;3.23;;;;;;;11.63;100.00;98953.97;5049346;28;20235;-60
2023/03/24 01:13:28;;;;;;;4.37;3.97;;;;;;;11.65;100.00;98959.00;5073371;28;20181;-59
2023/03/24 01:15:54;;;;;;;3.83;3.20;;;;;;;11.60;100.00;98952.47;5052857;28;20177;-59
2023/03/24 01:18:22;;;;;;;4.63;3.13;;;;;;;11.63;100.00;98948.84;5086908;28;20184;-59
2023/03/24 01:20:48;;;;;;;4.47;4.07;;;;;;;11.63;100.00;98952.25;5043831;28;20233;-60
2023/03/24 01:23:16;;;;;;;4.30;3.90;;;;;;;11.63;100.00;98944.53;5057681;28;20173;-60
2023/03/24 01:25:44;;;;;;;4.07;3.53;;;;;;;11.66;100.00;98940.88;5054443;28;20181;-60
2023/03/24 01:28:16;;;;;;;3.63;3.33;;;;;;;11.75;100.00;98940.16;5086499;28;20269;-60
2023/03/24 01:30:41;;;;;;;4.63;4.07;;;;;;;11.69;100.00;98925.19;5054410;28;20243;-60
2023/03/24 01:33:07;;;;;;;3.63;3.33;;;;;;;11.75;100.00;98937.56;5075341;28;20196;-60
2023/03/24 01:35:32;;;;;;;3.93;3.53;;;;;;;11.63;100.00;98928.22;5052878;28;20188;-60
2023/03/24 01:37:58;;;;;;;4.57;3.37;;;;;;;11.65;100.00;98931.50;5053827;28;20250;-60
2023/03/24 01:40:28;;;;;;;6.10;3.40;;;;;;;11.72;100.00;98924.94;5049192;28;20251;-61
2023/03/24 01:42:53;;;;;;;4.67;3.30;;;;;;;11.85;100.00;98927.38;5051831;28;20260;-59
2023/03/24 01:45:40;;;;;;;5.07;3.83;;;;;;;11.74;100.00;98928.22;5054026;28;20315;-60
2023/03/24 01:48:24;;;;;;;4.40;3.80;;;;;;;11.85;100.00;98924.00;5053864;28;20312;-59
2023/03/24 01:51:02;;;;;;;4.03;3.40;;;;;;;11.96;100.00;98916.25;5056450;28;20253;-60
2023/03/24 01:53:29;;;;;;;3.17;2.87;;;;;;;11.90;100.00;98917.50;5060449;28;20169;-59
2023/03/24 01:55:55;;;;;;;4.30;3.50;;;;;;;11.98;100.00;98923.84;5052644;28;20177;-62
2023/03/24 01:58:22;;;;;;;5.87;3.57;;;;;;;12.10;100.00;98915.16;5040643;28;20198;-60
2023/03/24 02:00:47;;;;;;;3.63;3.33;;;;;;;12.07;100.00;98897.38;5069685;28;20228;-60
2023/03/24 02:03:22;;;;;;;3.40;3.10;;;;;;;12.07;100.00;98897.38;5062581;28;20182;-60
2023/03/24 02:05:51;;;;;;;4.10;3.70;;;;;;;12.10;100.00;98889.38;5040015;28;20544;-60
2023/03/24 02:08:51;;;;;;;4.70;3.67;;;;;;;11.87;100.00;98879.13;5081460;28;20226;-61
2023/03/24 02:11:18;;;;;;;3.47;3.17;;;;;;;12.08;100.00;98871.47;5040409;28;20650;-60
2023/03/24 02:13:43;;;;;;;5.67;3.43;;;;;;;12.17;100.00;98875.06;5058063;28;20628;-60
2023/03/24 02:16:47;;;;;;;4.17;3.63;;;;;;;12.06;100.00;98854.50;5051985;28;20181;-59
2023/03/24 02:19:43;;;;;;;3.90;3.33;;;;;;;11.97;100.00;98858.63;5011126;28;20198;-59
2023/03/24 02:22:40;;;;;;;4.80;3.63;;;;;;;11.96;100.00;98844.09;4976057;28;20228;-60
2023/03/24 02:25:30;;;;;;;4.00;3.60;;;;;;;12.00;100.00;98835.16;5008622;28;20670;-61
2023/03/24 02:28:23;;;;;;;4.00;3.70;;;;;;;11.85;100.00;98826.88;5011104;28;20257;-61
2023/03/24 02:30:51;;;;;;;3.27;3.07;;;;;;;11.96;100.00;98828.63;4981671;28;20408;-60
2023/03/24 02:33:50;;;;;;;3.80;3.40;;;;;;;11.88;100.00;98812.94;5000887;28;20280;-61
2023/03/24 02:36:35;;;;;;;6.73;4.57;;;;;;;12.07;100.00;98822.63;5010787;28;20241;-61
2023/03/24 02:39:19;;;;;;;4.17;3.77;;;;;;;11.81;100.00;98820.34;5010996;28;20256;-61
2023/03/24 02:42:08;;;;;;;5.83;4.27;;;;;;;11.79;100.00;98828.22;5000160;28;20700;-60
2023/03/24 02:44:39;;;;;;;6.33;4.43;;;;;;;11.81;100.00;98850.44;4994182;28;20171;-60
2023/03/24 02:47:15;;;;;;;6.03;4.40;;;;;;;11.85;100.00;98859.56;5010900;28;20174;-60
2023/03/24 02:49:46;;;;;;;5.40;4.20;;;;;;;11.88;100.00;98859.31;4994363;28;20343;-62
2023/03/24 02:52:22;;;;;;;8.43;4.50;;;;;;;11.79;100.00;98856.56;4999794;28;20238;-61
2023/03/24 02:54:47;;;;;;;6.37;4.30;;;;;;;11.82;100.00;98849.50;4997134;28;20186;-60
2023/03/24 02:57:36;;;;;;;4.63;4.20;;;;;;;11.57;100.00;98839.41;5047572;28;20196;-60
2023/03/24 03:00:16;;;;;;;5.53;4.30;;;;;;;11.67;100.00;98841.22;5048586;28;20201;-61
2023/03/24 03:02:48;;;;;;;5.07;4.57;;;;;;;11.74;100.00;98839.81;5079821;28;20186;-60
2023/03/24 03:05:22;;;;;;;5.03;4.50;;;;;;;11.52;100.00;98840.69;5051103;28;20186;-59
2023/03/24 03:07:50;;;;;;;10.30;5.33;;;;;;;11.54;100.00;98834.47;5084650;28;20173;-59
2023/03/24 03:10:24;;;;;;;5.57;5.07;;;;;;;11.46;100.00;98829.94;5045735;28;20228;-60
2023/03/24 03:12:53;;;;;;;5.73;5.23;;;;;;;11.35;100.00;98822.25;5078402;28;20189;-58
2023/03/24 03:15:23;;;;;;;5.53;5.03;;;;;;;11.44;100.00;98816.34;5050848;28;20173;-59
2023/03/24 03:17:58;;;;;;;5.67;5.10;;;;;;;11.43;100.00;98817.28;5051125;28;20196;-59
2023/03/24 03:20:29;;;;;;;5.77;5.13;;;;;;;11.36;100.00;98815.31;5041021;28;20231;-59
2023/03/24 03:23:10;;;;;;;6.73;5.37;;;;;;;11.24;100.00;98817.91;5055973;28;20177;-58
2023/03/24 03:25:45;;;;;;;5.97;5.20;;;;;;;11.35;100.00;98818.81;5035541;28;20198;-62
2023/03/24 03:28:13;;;;;;;6.20;4.77;;;;;;;11.38;100.00;98803.97;5079967;28;20640;-61
2023/03/24 03:30:42;;;;;;;5.53;5.00;;;;;;;11.38;100.00;98808.31;5048663;28;20224;-59
2023/03/24 03:33:16;;;;;;;6.83;5.53;;;;;;;11.37;100.00;98799.75;5060996;28;20185;-60
2023/03/24 03:35:47;;;;;;;5.73;5.13;;;;;;;11.33;100.00;98810.44;5052127;28;20191;-59
2023/03/24 03:38:20;;;;;;;5.77;5.07;;;;;;;11.46;100.00;98799.03;5084039;28;20192;-59
2023/03/24 03:40:54;;;;;;;5.70;5.17;;;;;;;11.50;100.00;98809.06;5049068;28;20255;-61
2023/03/24 03:43:20;;;;;;;5.93;5.33;;;;;;;11.64;100.00;98808.81;5059701;28;20216;-59
2023/03/24 03:45:45;;;;;;;6.10;5.60;;;;;;;11.73;100.00;98804.69;5051881;28;20671;-62
2023/03/24 03:48:11;;;;;;;5.30;4.80;;;;;;;11.68;100.00;98793.94;5051754;28;20651;-60
2023/03/24 03:50:37;;;;;;;5.63;5.13;;;;;;;11.75;100.00;98803.63;5050390;28;20228;-60
2023/03/24 03:53:04;;;;;;;9.50;5.63;;;;;;;11.71;100.00;98791.94;5061333;28;20177;-60
2023/03/24 03:55:30;;;;;;;8.07;6.40;;;;;;;11.88;100.00;98806.03;5050027;28;20314;-59
2023/03/24 03:57:56;;;;;;;7.80;6.00;;;;;;;11.86;100.00;98795.03;5050511;28;20246;-60
2023/03/24 04:00:22;;;;;;;6.90;6.03;;;;;;;11.87;100.00;98794.09;5068083;28;20650;-60
2023/03/24 04:03:14;;;;;;;7.60;6.40;;;;;;;11.88;100.00;98798.31;5077800;28;20173;-59
2023/03/24 04:06:08;;;;;;;6.83;5.03;;;;;;;11.89;100.00;98792.19;5050506;28;20264;-60
2023/03/24 04:08:43;;;;;;;6.70;6.03;;;;;;;12.03;100.00;98798.84;5050919;28;20229;-59
2023/03/24 04:11:20;;;;;;;6.90;5.93;;;;;;;12.04;100.00;98808.19;5052290;28;20293;-58
2023/03/24 04:13:48;;;;;;;7.77;5.73;;;;;;;11.94;100.00;98797.81;5055292;28;20204;-60
2023/03/24 04:16:26;;;;;;;7.83;6.00;;;;;;;11.97;100.00;98807.09;5060587;28;20227;-60
2023/03/24 04:18:57;;;;;;;7.23;6.53;;;;;;;11.92;100.00;98807.41;5055027;28;20178;-59
2023/03/24 04:21:35;;;;;;;7.43;6.63;;;;;;;11.93;100.00;98819.38;5062676;28;20234;-59
2023/03/24 04:24:15;;;;;;;6.93;6.33;;;;;;;11.94;100.00;98807.28;5038525;28;20181;-61
2023/03/24 04:26:54;;;;;;;6.93;6.27;;;;;;;11.91;100.00;98810.94;5047833;28;20185;-59
2023/03/24 04:30:05;;;;;;;8.40;6.07;;;;;;;11.89;100.00;98814.56;5050060;28;20185;-60
2023/03/24 04:32:45;;;;;;;6.93;5.67;;;;;;;11.91;100.00;98817.84;4980242;28;20239;-60
2023/03/24 04:35:25;;;;;;;6.80;6.13;;;;;;;11.88;100.00;98818.09;5050939;28;20173;-60
2023/03/24 04:37:52;;;;;;;6.97;6.20;;;;;;;11.97;100.00;98824.28;5049946;28;20185;-61
2023/03/24 04:40:21;;;;;;;6.27;5.53;;;;;;;11.87;100.00;98821.59;5043731;28;20201;-59
2023/03/24 04:42:51;;;;;;;6.90;5.97;;;;;;;11.89;100.00;98819.72;5057560;28;20193;-59
2023/03/24 04:45:18;;;;;;;6.57;5.50;;;;;;;11.94;100.00;98810.69;5049565;28;20184;-58
2023/03/24 04:47:52;;;;;;;6.87;5.70;;;;;;;11.81;100.00;98810.03;5083219;28;20178;-58
2023/03/24 04:50:39;;;;;;;7.23;6.23;;;;;;;11.72;100.00;98798.72;5043827;28;20192;-58
2023/03/24 04:53:06;;;;;;;7.10;5.87;;;;;;;11.73;100.00;98782.34;5067504;28;20185;-58
2023/03/24 04:55:48;;;;;;;7.10;5.83;;;;;;;11.65;100.00;98771.81;5049585;28;20185;-59
2023/03/24 04:58:15;;;;;;;6.50;5.90;;;;;;;11.60;100.00;98772.19;5049763;28;20260;-59
2023/03/24 05:00:43;;;;;;;9.00;6.50;;;;;;;11.60;100.00;98774.75;5047643;28;20291;-59
2023/03/24 05:03:12;;;;;;;7.37;6.67;;;;;;;11.58;100.00;98768.91;5060048;28;20614;-58
2023/03/24 05:05:40;;;;;;;8.07;6.83;;;;;;;11.53;100.00;98758.16;5050791;28;20185;-59
2023/03/24 05:08:07;;;;;;;9.47;7.43;;;;;;;11.61;100.00;98754.97;5050562;28;20283;-60
2023/03/24 05:10:32;;;;;;;6.43;5.80;;;;;;;11.59;100.00;98751.69;5046235;28;20671;-60
2023/03/24 05:12:58;;;;;;;6.90;6.30;;;;;;;11.53;100.00;98765.88;5074295;28;20315;-60
2023/03/24 05:15:23;;;;;;;8.07;6.17;;;;;;;11.54;100.00;98774.44;5050619;28;20633;-59
2023/03/24 05:17:48;;;;;;;8.67;6.67;;;;;;;11.53;100.00;98786.47;5052574;28;20177;-59
2023/03/24 05:20:14;;;;;;;6.20;5.70;;;;;;;11.50;100.00;98778.19;5047185;28;20334;-58
2023/03/24 05:22:39;;;;;;;9.23;5.83;;;;;;;11.59;100.00;98791.13;5082688;28;20205;-59
2023/03/24 05:25:05;;;;;;;5.63;5.13;;;;;;;11.55;100.00;98801.84;5054122;28;20680;-59
2023/03/24 05:27:31;;;;;;;6.20;5.57;;;;;;;11.55;100.00;98805.22;5054512;28;20186;-62
2023/03/24 05:29:56;;;;;;;7.03;5.23;;;;;;;11.58;100.00;98801.56;5054169;28;20188;-58
2023/03/24 05:32:21;;;;;;;5.00;4.60;;;;;;;11.56;100.00;98809.44;5075790;28;20221;-60
2023/03/24 05:34:47;;;;;;;7.67;4.40;;;;;;;11.70;100.00;98792.88;5053942;28;20187;-58
2023/03/24 05:37:15;;;;;;;5.20;4.60;;;;;;;11.69;100.00;98809.25;5054110;28;20282;-59
2023/03/24 05:39:40;;;;;;;5.03;4.63;;;;;;;11.73;100.00;98813.25;5053722;28;20554;-60
2023/03/24 05:42:06;;;;;;;4.83;4.37;;;;;;;11.86;100.00;98820.78;5076087;28;20315;-59
2023/03/24 05:44:31;;;;;;;4.63;4.13;;;;;;;11.92;100.00;98824.63;5053788;28;20165;-58
2023/03/24 05:46:56;;;;;;;4.30;3.90;;;;;;;11.92;100.00;98824.63;5054111;28;20188;-58
2023/03/24 05:49:21;;;;;;;4.30;4.00;;;;;;;11.98;100.00;98836.25;5053646;28;20241;-59
2023/03/24 05:51:47;;;;;;;4.40;4.00;;;;;;;11.78;100.00;98836.03;5058423;28;20228;-60
2023/03/24 05:54:12;;;;;;;6.30;3.90;;;;;;;11.89;100.00;98841.16;5044558;28;20173;-60
2023/03/24 05:56:38;;;;;;;4.63;3.70;;;;;;;11.88;100.00;98849.84;5053763;28;20491;-60
2023/03/24 05:59:03;;;;;;;3.70;3.40;;;;;;;11.86;100.00;98859.44;5053778;28;20260;-60
2023/03/24 06:01:29;;;;;;;4.67;3.27;;;;;;;12.01;100.00;98864.34;5062637;28;20240;-60
2023/03/24 06:03:54;;;;;;;3.83;3.20;;;;;;;11.95;100.00;98863.03;5052476;28;20208;-60
2023/03/24 06:06:19;;;;;;;3.13;2.83;;;;;;;11.94;100.00;98882.00;5053806;28;20178;-60
2023/03/24 06:08:45;;;;;;;2.77;2.47;;;;;;;12.04;100.00;98866.66;5053160;28;20221;-60
2023/03/24 06:11:11;;;;;;;2.60;2.40;;;;;;;12.15;100.00;98873.53;5061237;28;20305;-60
2023/03/24 06:13:36;;;;;;;2.53;2.33;;;;;;;12.30;100.00;98876.63;5053264;28;20182;-61
2023/03/24 06:16:02;;;;;;;2.30;2.10;;;;;;;12.32;100.00;98892.81;5053658;28;20173;-60
2023/03/24 06:18:29;;;;;;;2.93;2.50;;;;;;;12.41;100.00;98879.16;5053241;28;20261;-61
2023/03/24 06:20:59;;;;;;;4.47;2.57;;;;;;;12.45;100.00;98882.31;5076025;28;20326;-60
2023/03/24 06:23:26;;;;;;;2.47;2.27;;;;;;;12.39;100.00;98879.28;5076209;28;20185;-59
2023/03/24 06:25:57;;;;;;;2.47;2.10;;;;;;;12.55;100.00;98886.59;5051918;28;20174;-60
2023/03/24 06:28:25;;;;;;;2.50;2.30;;;;;;;12.62;100.00;98880.94;5043521;28;20292;-60
2023/03/24 06:30:50;;;;;;;2.40;2.13;;;;;;;12.53;100.00;98885.88;5064182;28;20276;-60
2023/03/24 06:33:15;;;;;;;4.20;2.43;;;;;;;12.50;100.00;98888.75;5048255;28;20198;-62
2023/03/24 06:35:41;;;;;;;2.43;2.23;;;;;;;12.49;100.00;98887.09;5051514;28;20177;-61
2023/03/24 06:38:08;;;;;;;3.17;2.60;;;;;;;12.61;100.00;98890.41;5043470;28;20656;-62
2023/03/24 06:40:34;;;;;;;3.10;2.70;;;;;;;12.66;100.00;98898.59;5044176;28;20236;-60
2023/03/24 06:43:00;;;;;;;3.70;2.63;;;;;;;12.70;100.00;98894.00;5076115;28;20178;-60
2023/03/24 06:45:26;;;;;;;3.83;2.70;;;;;;;12.86;100.00;98890.97;5051623;28;20854;-60
2023/03/24 06:47:54;;;;;;;3.37;3.07;;;;;;;12.96;100.00;98889.25;5052910;28;20192;-61
2023/03/24 06:50:20;;;;;;;3.37;2.73;;;;;;;13.03;100.00;98894.72;5034066;28;20268;-61
2023/03/24 06:52:46;;;;;;;4.03;3.10;;;;;;;12.96;100.00;98897.00;5064883;28;20181;-61
2023/03/24 06:55:11;;;;;;;3.87;3.27;;;;;;;13.08;100.00;98889.97;5052625;28;20196;-61
2023/03/24 06:57:37;;;;;;;4.63;3.80;;;;;;;13.23;100.00;98887.84;5052873;28;20663;-60
2023/03/24 07:00:04;;;;;;;3.57;3.23;;;;;;;13.25;100.00;98880.81;5047219;28;20201;-60
2023/03/24 07:02:34;;;;;;;4.27;3.83;;;;;;;13.29;100.00;98883.94;5084128;28;20240;-59
2023/03/24 07:05:00;;;;;;;3.50;3.20;;;;;;;13.29;100.00;98883.94;5052244;28;20176;-59
2023/03/24 07:07:25;;;;;;;3.50;3.20;;;;;;;13.30;100.00;98885.59;5052616;28;20178;-61
2023/03/24 07:09:51;;;;;;;4.70;3.70;;;;;;;13.20;100.00;98886.34;5052190;28;20228;-63
2023/03/24 07:12:16;;;;;;;3.50;3.17;;;;;;;13.04;100.00;98892.00;5074459;28;20234;-61
2023/03/24 07:14:41;;;;;;;4.10;3.27;;;;;;;13.03;100.00;98895.53;5052109;28;20264;-61
2023/03/24 07:17:06;;;;;;;4.27;3.83;;;;;;;13.00;100.00;98900.13;5052550;28;20185;-60
2023/03/24 07:19:32;;;;;;;4.13;3.83;;;;;;;12.98;100.00;98900.25;5051920;28;20200;-60
2023/03/24 07:21:57;;;;;;;4.87;3.80;;;;;;;12.78;100.00;98912.25;5059059;28;20240;-61
2023/03/24 07:24:23;;;;;;;6.83;3.83;;;;;;;12.50;100.00;98924.00;5053477;28;20196;-59
2023/03/24 07:26:48;;;;;;;4.33;3.80;;;;;;;12.50;100.00;98924.00;5067660;28;20618;-59
2023/03/24 07:29:13;;;;;;;5.27;4.27;;;;;;;12.28;100.00;98928.34;5052103;28;20561;-60
2023/03/24 07:31:39;;;;;;;5.23;3.83;;;;;;;12.04;100.00;98911.28;5067359;28;20220;-58
2023/03/24 07:34:05;;;;;;;7.33;4.53;;;;;;;11.82;100.00;98932.78;5057743;28;20581;-60
2023/03/24 07:36:30;;;;;;;7.97;4.67;;;;;;;11.69;100.00;98927.75;5051689;28;20187;-59
2023/03/24 07:38:55;;;;;;;9.13;4.70;;;;;;;11.72;100.00;98932.69;5052059;28;20185;-62
2023/03/24 07:41:21;;;;;;;5.63;4.50;;;;;;;11.71;100.00;98936.19;5061733;28;20235;-61
2023/03/24 07:43:46;;;;;;;8.70;4.60;;;;;;;11.61;100.00;98937.84;5062634;28;20651;-60
2023/03/24 07:46:11;;;;;;;7.60;5.30;;;;;;;11.62;100.00;98945.44;5051905;28;20186;-60
2023/03/24 07:48:37;;;;;;;6.50;5.20;;;;;;;11.58;100.00;98946.59;5051263;28;20513;-60
2023/03/24 07:51:02;;;;;;;8.00;5.30;;;;;;;11.54;100.00;98955.50;5057428;28;20215;-59
2023/03/24 07:53:27;;;;;;;6.07;4.97;;;;;;;11.64;100.00;98947.91;5057042;28;20177;-61
2023/03/24 07:55:52;;;;;;;6.53;5.70;;;;;;;11.68;100.00;98946.72;5051580;28;20643;-60
2023/03/24 07:58:18;;;;;;;5.47;5.07;;;;;;;11.59;100.00;98950.81;5052042;28;20169;-60
2023/03/24 08:00:43;;;;;;;6.80;6.20;;;;;;;11.66;100.00;98951.19;5036068;28;20632;-60
2023/03/24 08:03:12;;;;;;;6.80;6.03;;;;;;;11.74;100.00;98938.50;5061107;28;20192;-60
2023/03/24 08:05:39;;;;;;;6.57;5.97;;;;;;;11.61;100.00;98943.81;5049873;28;20181;-61
2023/03/24 08:08:05;;;;;;;6.93;6.27;;;;;;;11.72;100.00;98937.81;5049759;28;20228;-60
2023/03/24 08:10:31;;;;;;;7.43;6.67;;;;;;;11.61;100.00;98943.81;5045888;28;20234;-66
2023/03/24 08:12:57;;;;;;;7.13;6.43;;;;;;;11.55;100.00;98959.72;5068093;28;20185;-61
2023/03/24 08:15:23;;;;;;;7.57;6.57;;;;;;;11.65;100.00;98948.72;5044948;28;20277;-60
2023/03/24 08:17:50;;;;;;;7.87;7.13;;;;;;;11.61;100.00;98945.56;5045377;28;20178;-60
2023/03/24 08:20:18;;;;;;;7.30;6.60;;;;;;;11.65;100.00;98959.84;5039143;28;20901;-60
2023/03/24 08:22:52;;;;;;;8.07;6.87;;;;;;;11.74;100.00;98969.44;5055150;28;20656;-60
2023/03/24 08:25:19;;;;;;;9.30;7.67;;;;;;;11.71;100.00;98961.13;5050726;28;20276;-60
2023/03/24 08:27:46;;;;;;;7.57;6.87;;;;;;;11.70;100.00;98968.03;5049782;28;20264;-60
2023/03/24 08:30:22;;;;;;;6.60;5.90;;;;;;;11.55;100.00;98959.72;5021809;28;20696;-61
2023/03/24 08:32:50;;;;;;;6.40;5.80;;;;;;;11.58;100.00;98962.06;5065241;28;20269;-60
2023/03/24 08:35:19;;;;;;;5.10;4.60;;;;;;;11.49;100.00;98956.81;5083018;28;20251;-61
2023/03/24 08:37:44;;;;;;;5.00;4.50;;;;;;;11.50;100.00;98950.72;5050647;28;20182;-60
2023/03/24 08:40:13;;;;;;;4.67;3.70;;;;;;;11.43;100.00;98960.66;5040092;28;20244;-59
2023/03/24 08:42:40;;;;;;;4.07;3.17;;;;;;;11.34;100.00;98974.22;5069917;28;20185;-60
2023/03/24 08:45:07;;;;;;;2.50;1.93;;;;;;;11.26;100.00;98977.38;5083256;28;20180;-59
2023/03/24 08:47:33;;;;;;;2.40;1.60;;;;;;;11.08;100.00;98969.31;5049335;28;20212;-59
2023/03/24 08:49:58;;;;;;;2.97;1.80;;;;;;;10.98;100.00;98980.28;5050436;28;20220;-61
2023/03/24 08:52:24;;;;;;;2.03;1.00;;;;;;;10.74;100.00;98974.38;5073605;28;20252;-59
2023/03/24 08:54:50;;;;;;;0.90;0.90;;;;;;;10.61;100.00;98962.41;5076631;28;20170;-60
2023/03/24 08:57:16;;;;;;;3.47;1.20;;;;;;;10.57;100.00;98949.91;5048903;28;20555;-60
2023/03/24 08:59:41;;;;;;;1.40;0.93;;;;;;;10.51;100.00;98960.63;5035586;28;20640;-60
2023/03/24 09:02:10;;;;;;;2.03;1.00;;;;;;;10.42;100.00;98956.94;5072396;28;20254;-60
2023/03/24 09:04:36;;;;;;;1.30;1.20;;;;;;;10.56;100.00;98935.41;5086944;28;20203;-61
2023/03/24 09:07:01;;;;;;;2.90;1.03;;;;;;;10.85;100.00;98946.09;5053505;28;20181;-62
2023/03/24 09:09:27;;;;;;;4.70;1.37;;;;;;;11.16;100.00;98948.16;5054503;28;20237;-61
2023/03/24 09:11:53;;;;;;;1.40;1.10;;;;;;;11.32;100.00;98964.06;5070709;28;20232;-68
2023/03/24 09:14:18;;;;;;;2.53;0.80;;;;;;;11.26;100.00;98972.25;5047869;28;20637;-60
2023/03/24 09:16:44;;;;;;;1.30;1.20;;;;;;;11.17;100.00;98968.59;5053384;28;20188;-61
2023/03/24 09:19:09;;;;;;;3.90;0.97;;;;;;;11.23;100.00;98975.88;5034206;28;20178;-61
2023/03/24 09:21:37;;;;;;;0.80;0.80;;;;;;;11.18;100.00;98990.84;5042469;28;20225;-62
2023/03/24 09:24:02;;;;;;;1.47;0.70;;;;;;;11.08;100.00;98988.13;5048622;28;20234;-60
2023/03/24 09:26:28;;;;;;;3.17;0.70;;;;;;;11.19;100.00;98992.50;5050032;28;20281;-61
2023/03/24 09:28:54;;;;;;;1.10;0.83;;;;;;;11.11;100.00;98999.94;5051549;28;20275;-59
2023/03/24 09:31:19;;;;;;;1.17;1.07;;;;;;;11.22;100.00;98999.16;5051881;28;20609;-60
2023/03/24 09:33:44;;;;;;;0.90;0.80;;;;;;;11.21;100.00;99002.66;5057334;28;20196;-60
2023/03/24 09:36:10;;;;;;;3.07;1.20;;;;;;;11.24;100.00;99007.59;5042694;28;20197;-59
2023/03/24 09:38:35;;;;;;;3.70;1.70;;;;;;;11.15;100.00;99003.97;5045417;28;20185;-59
2023/03/24 09:41:02;;;;;;;5.57;2.50;;;;;;;11.29;100.00;99010.63;5047492;28;20241;-59
2023/03/24 09:43:40;;;;;;;3.67;1.70;;;;;;;11.34;100.00;99018.84;5060242;28;20209;-60
2023/03/24 09:46:13;;;;;;;1.80;1.10;;;;;;;11.25;100.00;99017.78;5035084;28;20280;-59
2023/03/24 09:48:55;;;;;;;1.10;1.00;;;;;;;11.25;100.00;99025.50;5037922;28;20671;-60
2023/03/24 09:51:25;;;;;;;3.03;0.90;;;;;;;11.27;100.00;99036.47;5056031;28;20229;-63
2023/03/24 09:54:12;;;;;;;1.30;1.00;;;;;;;11.31;100.00;99034.50;5045969;28;20276;-60
2023/03/24 09:56:42;;;;;;;1.00;0.90;;;;;;;11.28;100.00;99045.03;5076011;28;20539;-60
2023/03/24 09:59:18;;;;;;;2.60;1.20;;;;;;;11.40;100.00;99048.44;5052334;28;20178;-60
2023/03/24 10:01:44;;;;;;;1.57;0.83;;;;;;;11.37;100.00;99051.25;5047675;28;20254;-61
2023/03/24 10:04:15;;;;;;;1.77;1.30;;;;;;;11.25;100.00;99050.41;5044620;28;20259;-62
2023/03/24 10:06:41;;;;;;;1.93;1.27;;;;;;;11.17;100.00;99060.47;5037565;28;20224;-60
2023/03/24 10:09:23;;;;;;;3.13;1.33;;;;;;;11.17;100.00;99056.13;5034864;28;20253;-61
2023/03/24 10:12:07;;;;;;;2.27;1.57;;;;;;;11.12;100.00;99060.78;5054911;28;20234;-60
2023/03/24 10:14:38;;;;;;;3.37;1.37;;;;;;;11.09;100.00;99061.03;5051889;28;20216;-60
2023/03/24 10:17:22;;;;;;;2.23;1.40;;;;;;;11.12;100.00;99068.50;5048278;28;20276;-60
2023/03/24 10:19:53;;;;;;;1.57;1.37;;;;;;;11.37;100.00;99064.94;5046321;28;20194;-63
2023/03/24 10:22:26;;;;;;;1.77;1.20;;;;;;;11.75;100.00;99063.00;5053351;28;20343;-60
2023/03/24 10:25:03;;;;;;;1.87;0.90;;;;;;;11.97;100.00;99069.94;5043085;28;20228;-60
2023/03/24 10:27:41;;;;;;;1.80;1.23;;;;;;;12.41;100.00;99059.69;5048731;28;20223;-60
2023/03/24 10:30:19;;;;;;;2.40;1.00;;;;;;;14.12;100.00;99044.03;5070055;28;20194;-63
2023/03/24 10:32:45;;;;;;;2.57;0.70;;;;;;;15.94;100.00;99032.94;5056058;28;20273;-60
2023/03/24 10:35:18;;;;;;;1.57;0.70;;;;;;;16.45;100.00;99024.72;5077015;28;20194;-63
2023/03/24 10:37:44;;;;;;;1.13;0.80;;;;;;;16.46;100.00;99026.34;5051514;28;20176;-61
2023/03/24 10:40:15;;;;;;;0.97;0.67;;;;;;;15.67;100.00;99038.09;5038529;28;20291;-61
2023/03/24 10:42:42;;;;;;;1.63;0.70;;;;;;;15.05;100.00;99041.13;5077254;28;20181;-61
2023/03/24 10:45:13;;;;;;;3.13;0.80;;;;;;;15.14;100.00;99041.13;5051309;28;20189;-61
2023/03/24 10:47:39;;;;;;;0.70;0.70;;;;;;;14.96;100.00;99053.94;5051153;28;20252;-61
2023/03/24 10:50:06;;;;;;;1.77;0.70;;;;;;;14.58;100.00;99050.34;5032010;28;20285;-62
2023/03/24 10:52:58;;;;;;;3.37;1.07;;;;;;;13.99;100.00;99062.34;5080051;28;20190;-61
2023/03/24 10:55:37;;;;;;;1.47;0.93;;;;;;;14.03;100.00;99068.91;5035833;28;20204;-64
2023/03/24 10:58:12;;;;;;;1.20;0.87;;;;;;;14.01;100.00;99060.47;5076756;28;20236;-61
2023/03/24 11:00:37;;;;;;;1.63;0.73;;;;;;;13.98;100.00;99052.94;5032893;28;20762;-61
2023/03/24 11:03:12;;;;;;;2.73;0.97;;;;;;;13.99;100.00;99062.34;5057483;28;20268;-61
2023/03/24 11:05:40;;;;;;;3.27;1.00;;;;;;;14.46;100.00;99065.22;5052487;28;20184;-62
2023/03/24 11:08:31;;;;;;;2.43;1.13;;;;;;;14.58;100.00;99065.88;5084514;28;20229;-61
2023/03/24 11:10:57;;;;;;;1.53;0.80;;;;;;;14.52;100.00;99067.25;5049298;28;20315;-62
2023/03/24 11:13:23;;;;;;;3.30;1.03;;;;;;;14.04;100.00;99061.03;5059800;28;20257;-60
2023/03/24 11:16:14;;;;;;;4.63;1.30;;;;;;;13.95;100.00;99066.16;5034547;28;20536;-62
2023/03/24 11:19:19;;;;;;;2.47;1.30;;;;;;;14.27;100.00;99055.63;5034261;28;20209;-62
2023/03/24 11:21:46;;;;;;;4.37;1.40;;;;;;;14.40;100.00;99054.56;4998923;28;20226;-61
2023/03/24 11:24:14;;;;;;;3.77;1.40;;;;;;;14.53;100.00;99052.53;5025982;28;20248;-64
2023/03/24 11:26:45;;;;;;;4.20;1.60;;;;;;;14.64;100.00;99047.22;5026322;28;20174;-62
2023/03/24 11:29:17;;;;;;;2.77;1.20;;;;;;;14.85;100.00;99047.13;5020901;28;20788;-59
2023/03/24 11:31:52;;;;;;;3.17;1.42;;;;;;;14.99;100.00;99045.88;5001050;28;20467;-60
2023/03/24 11:34:25;;;;;;;2.60;1.13;;;;;;;15.00;100.00;99055.28;5022312;28;20214;-60
2023/03/24 11:36:56;;;;;;;3.13;1.50;;;;;;;15.15;100.00;99058.25;5017393;28;20873;-60
2023/03/24 11:39:26;;;;;;;2.73;1.37;;;;;;;14.95;100.00;99060.06;5025913;28;20285;-59